Time;durP1;ratioP1;P1;durP2;ratioP2;P2;SDS_P1;SDS_P2;PMS_P1;PMS_P2;Temp;Humidity;BMP_temperature;BMP_pressure;BME280_temperature;BME280_humidity;BME280_pressure;Samples;Min_cycle;Max_cycle;Signal;HPM_P1;HPM_P2
2022/12/05 00:02:03;;;;;;;75.47;43.20;;;5.70;99.90;;;5.76;88.31;101714.00;5113629;28;20035;-76
2022/12/05 00:04:31;;;;;;;82.53;44.10;;;5.70;99.90;;;5.81;88.15;101714.09;5113623;28;20062;-76
2022/12/05 00:07:00;;;;;;;78.45;45.17;;;5.70;99.90;;;5.74;88.15;101717.41;5113606;28;20050;-76
2022/12/05 00:09:28;;;;;;;80.53;43.90;;;5.70;99.90;;;5.73;88.42;101706.03;5113316;28;20048;-76
2022/12/05 00:11:56;;;;;;;79.80;43.60;;;5.70;99.90;;;5.78;88.31;101714.94;5113498;28;20044;-76
2022/12/05 00:14:26;;;;;;;77.30;45.00;;;5.70;99.90;;;5.81;87.94;101711.47;5095303;28;20044;-76
2022/12/05 00:16:54;;;;;;;73.57;41.55;;;5.80;99.90;;;5.84;87.83;101709.88;5113259;28;20044;-76
2022/12/05 00:19:23;;;;;;;75.82;42.83;;;5.80;99.90;;;5.90;87.73;101717.94;5117261;28;20404;-76
2022/12/05 00:21:51;;;;;;;72.10;41.45;;;5.80;99.90;;;5.87;87.65;101707.34;5117771;28;20046;-76
2022/12/05 00:24:20;;;;;;;70.57;40.58;;;5.90;99.90;;;5.88;87.43;101714.38;5117182;28;20586;-76
2022/12/05 00:26:48;;;;;;;72.82;42.35;;;5.80;99.90;;;5.86;87.28;101718.69;5117343;28;20073;-76
2022/12/05 00:29:17;;;;;;;74.77;42.40;;;5.90;99.90;;;5.81;87.69;101716.72;5117355;28;20043;-76
2022/12/05 00:31:47;;;;;;;75.78;41.80;;;5.80;99.90;;;5.90;87.47;101706.53;5117273;28;20162;-77
2022/12/05 00:34:16;;;;;;;72.53;41.97;;;5.80;99.90;;;5.87;87.58;101709.97;5117590;28;20067;-76
2022/12/05 00:36:44;;;;;;;73.72;40.83;;;5.90;99.90;;;5.86;87.69;101713.44;5116950;28;20048;-76
2022/12/05 00:39:14;;;;;;;73.15;41.35;;;5.80;99.90;;;5.88;87.51;101706.50;5117153;28;20051;-76
2022/12/05 00:41:43;;;;;;;71.67;41.37;;;5.80;99.90;;;5.75;87.90;101712.19;5116869;28;20044;-76
2022/12/05 00:44:12;;;;;;;73.10;41.40;;;5.70;99.90;;;5.83;87.87;101718.59;5117096;28;20046;-76
2022/12/05 00:46:41;;;;;;;70.55;39.88;;;5.80;99.90;;;5.90;88.03;101717.94;5116737;28;20047;-76
2022/12/05 00:49:11;;;;;;;68.25;40.70;;;5.80;99.90;;;6.02;87.77;101717.38;5116929;28;20123;-76
2022/12/05 00:51:42;;;;;;;68.32;39.78;;;5.90;99.90;;;6.07;87.19;101714.03;5116610;28;20048;-76
2022/12/05 00:54:13;;;;;;;67.65;39.22;;;6.00;99.90;;;6.10;87.15;101716.72;5116925;28;20054;-76
2022/12/05 00:56:42;;;;;;;72.25;40.58;;;6.10;99.90;;;6.14;86.93;101717.69;5117093;28;20126;-76
2022/12/05 00:59:16;;;;;;;66.07;38.75;;;6.10;99.90;;;6.11;86.81;101718.53;5116843;28;20127;-76
2022/12/05 01:01:46;;;;;;;66.53;38.83;;;6.10;99.90;;;6.15;86.73;101709.00;5116822;28;20127;-76
2022/12/05 01:04:19;;;;;;;63.63;38.85;;;6.10;99.90;;;6.12;86.87;101712.41;5098520;28;20394;-76
2022/12/05 01:06:47;;;;;;;64.55;38.55;;;6.10;99.90;;;6.17;86.85;101723.06;5116428;28;20119;-76
2022/12/05 01:09:18;;;;;;;64.22;37.83;;;6.10;99.90;;;6.04;86.73;101721.81;5116336;28;20047;-76
2022/12/05 01:11:48;;;;;;;65.50;39.13;;;6.10;99.90;;;6.08;86.81;101717.53;5116226;28;20127;-76
2022/12/05 01:14:19;;;;;;;65.97;39.33;;;6.10;99.90;;;6.12;87.20;101708.88;5116519;28;20040;-76
2022/12/05 01:16:50;;;;;;;62.80;36.77;;;6.10;99.90;;;6.09;87.09;101714.97;5116644;28;20130;-77
2022/12/05 01:19:21;;;;;;;;;;;6.10;99.90;;;6.18;86.61;101717.84;5116626;28;20122;-76
2022/12/05 01:21:50;;;;;;;60.55;35.47;;;6.10;99.90;;;6.13;87.04;101703.69;5116186;28;20022;-76
2022/12/05 01:24:20;;;;;;;63.53;37.53;;;6.10;99.90;;;6.13;87.22;101719.47;5116144;28;20048;-76
2022/12/05 01:26:49;;;;;;;61.28;37.30;;;6.10;99.90;;;6.15;87.48;101712.50;5116465;28;20051;-76
2022/12/05 01:29:20;;;;;;;62.45;35.63;;;6.10;99.90;;;6.15;87.59;101719.50;5115230;28;20058;-76
2022/12/05 01:31:49;;;;;;;64.72;36.40;;;6.10;99.90;;;5.90;87.78;101678.56;5115835;28;20040;-76
2022/12/05 01:34:19;;;;;;;60.83;36.20;;;6.10;99.90;;;6.19;87.60;101714.34;5115820;28;20040;-77
2022/12/05 01:36:48;;;;;;;61.40;35.92;;;6.10;99.90;;;6.16;87.70;101716.91;5115869;28;20439;-76
2022/12/05 01:39:17;;;;;;;63.10;38.30;;;6.10;99.90;;;6.23;87.55;101724.09;5115738;28;20100;-76
2022/12/05 01:41:48;;;;;;;69.50;37.17;;;6.20;99.90;;;6.25;87.65;101716.28;5115618;28;20488;-76
2022/12/05 01:45:02;;;;;;;63.50;37.40;;;6.20;99.90;;;6.22;87.33;101713.53;5116238;28;20082;-76
2022/12/05 01:47:33;;;;;;;66.85;37.20;;;6.20;99.90;;;6.26;87.51;101721.56;5115574;28;20063;-77
2022/12/05 01:50:04;;;;;;;60.10;37.58;;;6.20;99.90;;;6.28;87.46;101718.97;5115569;28;20039;-76
2022/12/05 01:52:34;;;;;;;67.13;35.13;;;6.20;99.90;;;6.16;87.65;101718.63;5115774;28;20047;-75
2022/12/05 01:55:10;;;;;;;63.30;36.90;;;6.20;99.90;;;6.18;88.22;101711.69;5115499;28;20048;-75
2022/12/05 01:57:39;;;;;;;61.40;34.40;;;6.10;99.90;;;6.09;88.32;101716.69;5115520;28;20492;-76
2022/12/05 02:00:12;;;;;;;62.53;36.70;;;6.10;99.90;;;6.17;88.59;101716.06;5115613;28;20092;-76
2022/12/05 02:02:45;;;;;;;65.05;35.83;;;6.10;99.90;;;6.21;88.18;101720.53;5115657;28;20075;-76
2022/12/05 02:05:20;;;;;;;61.20;36.33;;;6.20;99.90;;;6.23;88.51;101721.47;5115274;28;20050;-76
2022/12/05 02:07:49;;;;;;;61.85;37.13;;;6.20;99.90;;;6.04;88.52;101698.19;5115826;28;20035;-76
2022/12/05 02:10:18;;;;;;;62.53;36.92;;;6.20;99.90;;;6.19;88.90;101722.22;5115096;28;20096;-76
2022/12/05 02:12:46;;;;;;;61.25;34.95;;;6.10;99.90;;;6.32;88.59;101726.97;5097037;28;20048;-76
2022/12/05 02:15:38;;;;;;;61.72;35.63;;;6.20;99.90;;;6.40;88.45;101732.44;5115593;28;20047;-76
2022/12/05 02:18:21;;;;;;;60.28;34.95;;;6.30;99.90;;;6.42;88.22;101725.47;5115512;28;20051;-76
2022/12/05 02:21:25;;;;;;;60.55;34.88;;;6.30;99.90;;;6.31;88.35;101724.28;5114966;28;20477;-76
2022/12/05 02:24:47;;;;;;;61.10;34.30;;;6.30;99.90;;;6.30;88.60;101726.03;5114889;28;20051;-75
2022/12/05 02:27:51;;;;;;;56.17;33.85;;;6.30;99.90;;;6.32;88.54;101729.59;5101833;28;20047;-77
2022/12/05 02:30:23;;;;;;;64.78;34.88;;;6.20;99.90;;;6.28;88.60;101725.13;5102331;28;20134;-76
2022/12/05 02:33:05;;;;;;;58.15;34.25;;;6.30;99.90;;;6.21;88.71;101702.13;5115309;28;20378;-76
2022/12/05 02:35:48;;;;;;;58.28;34.83;;;6.30;99.90;;;6.36;88.72;101718.34;5114687;28;20040;-77
2022/12/05 02:38:27;;;;;;;57.58;32.80;;;6.30;99.90;;;6.34;88.74;101722.66;5114584;28;20067;-77
2022/12/05 02:41:08;;;;;;;56.08;33.90;;;6.30;99.90;;;6.39;88.66;101723.66;5113840;28;20047;-76
2022/12/05 02:43:41;;;;;;;58.13;34.92;;;6.30;99.90;;;6.43;88.76;101729.00;5114560;28;20035;-77
2022/12/05 02:46:15;;;;;;;58.10;34.17;;;6.40;99.90;;;6.48;88.49;101724.75;5114472;28;20044;-77
2022/12/05 02:48:46;;;;;;;57.58;34.72;;;6.40;99.90;;;6.43;88.52;101716.72;5114764;28;20043;-77
2022/12/05 02:51:20;;;;;;;54.33;34.33;;;6.40;99.90;;;6.46;88.85;101734.31;5114599;28;20043;-76
2022/12/05 02:53:50;;;;;;;62.95;35.15;;;6.40;99.90;;;6.47;88.95;101725.56;5114362;28;20048;-77
2022/12/05 02:56:19;;;;;;;59.65;35.25;;;6.40;99.90;;;6.38;88.97;101736.75;5114534;28;20067;-77
2022/12/05 02:58:53;;;;;;;59.28;35.35;;;6.40;99.90;;;6.46;88.93;101739.56;5114228;28;20047;-76
2022/12/05 03:01:27;;;;;;;59.67;34.83;;;6.40;99.90;;;6.42;89.05;101737.72;5114818;28;20077;-76
2022/12/05 03:03:58;;;;;;;55.40;32.35;;;6.40;99.90;;;6.55;89.19;101742.44;5114144;28;20122;-76
2022/12/05 03:06:31;;;;;;;64.47;33.85;;;6.50;99.90;;;6.43;89.21;101737.75;5114121;28;20513;-76
2022/12/05 03:09:04;;;;;;;56.50;33.63;;;6.40;99.90;;;6.46;89.50;101740.47;5114601;28;20555;-76
2022/12/05 03:11:39;;;;;;;56.67;33.90;;;6.40;99.90;;;6.53;89.48;101736.25;5114542;28;20043;-74
2022/12/05 03:14:15;;;;;;;57.38;35.20;;;6.50;99.90;;;6.26;89.91;101733.78;5114578;28;20054;-76
2022/12/05 03:16:49;;;;;;;56.67;34.25;;;6.30;99.90;;;6.37;90.11;101732.34;5113996;28;20460;-75
2022/12/05 03:19:24;;;;;;;58.67;34.47;;;6.30;99.90;;;6.39;90.22;101731.53;5113899;28;20089;-75
2022/12/05 03:21:59;;;;;;;56.50;34.35;;;6.30;99.90;;;6.48;90.11;101730.91;5095926;28;20108;-76
2022/12/05 03:24:28;;;;;;;57.13;35.00;;;6.40;99.90;;;6.26;89.83;101689.13;5114090;28;20064;-76
2022/12/05 03:27:07;;;;;;;55.50;34.83;;;6.40;99.90;;;6.53;89.84;101726.63;5113769;28;20047;-77
2022/12/05 03:29:41;;;;;;;57.40;34.63;;;6.50;99.90;;;6.61;89.65;101729.44;5113790;28;20036;-76
2022/12/05 03:32:20;;;;;;;57.28;34.78;;;6.50;99.90;;;6.71;89.37;101734.09;5113644;28;20042;-76
2022/12/05 03:34:59;;;;;;;58.17;33.67;;;6.60;99.90;;;6.68;89.30;101741.91;5095394;28;20147;-76
2022/12/05 03:37:38;;;;;;;58.05;34.40;;;6.60;99.90;;;6.58;89.59;101737.28;5113698;28;20433;-77
2022/12/05 03:40:16;;;;;;;55.58;33.17;;;6.50;99.90;;;6.55;90.12;101734.53;5113942;28;20039;-77
2022/12/05 03:42:52;;;;;;;58.17;34.15;;;6.50;99.90;;;6.52;90.11;101739.75;5113635;28;20052;-77
2022/12/05 03:45:28;;;;;;;51.67;31.52;;;6.50;99.90;;;6.61;90.25;101746.13;5095652;28;20052;-76
2022/12/05 03:48:09;;;;;;;51.75;32.90;;;6.50;99.90;;;6.69;90.42;101734.06;5113855;28;20064;-77
2022/12/05 03:50:40;;;;;;;;;;;6.60;99.90;;;6.54;90.30;101749.44;5113999;28;20043;-76
2022/12/05 03:53:14;;;;;;;54.25;32.90;;;6.60;99.90;;;6.48;90.50;101737.88;5115498;28;20295;-76
2022/12/05 03:55:55;;;;;;;56.78;34.08;;;6.50;99.90;;;6.60;90.95;101746.94;5118386;28;20043;-77
2022/12/05 03:58:29;;;;;;;53.88;33.47;;;6.50;99.90;;;6.66;90.58;101754.13;5099784;28;20138;-76
2022/12/05 04:01:01;;;;;;;57.85;32.92;;;6.50;99.90;;;6.61;91.06;101753.09;5117693;28;20455;-77
2022/12/05 04:03:38;;;;;;;53.33;33.40;;;6.50;99.90;;;6.57;91.13;101757.41;5099624;28;20051;-76
2022/12/05 04:06:15;;;;;;;53.28;32.50;;;6.50;99.90;;;6.46;90.89;101734.31;5117935;28;20487;-76
2022/12/05 04:08:48;;;;;;;55.28;33.88;;;6.60;99.90;;;6.44;91.17;101725.50;5117886;28;20048;-76
2022/12/05 04:11:20;;;;;;;52.80;31.70;;;6.60;99.90;;;5.94;91.31;101643.63;5117537;28;20071;-76
2022/12/05 04:13:53;;;;;;;51.53;31.83;;;6.50;99.90;;;6.67;91.20;101758.53;5117378;28;20043;-76
2022/12/05 04:19:18;;;;;;;50.90;31.80;;;6.70;99.90;;;6.82;90.96;101753.66;5117359;28;20137;-76
2022/12/05 04:21:52;;;;;;;53.50;33.35;;;6.80;99.90;;;6.74;90.53;101761.34;5117346;28;20065;-76
2022/12/05 04:27:25;;;;;;;53.08;31.98;;;6.70;99.90;;;6.63;90.96;101743.53;5117416;28;20047;-76
2022/12/05 04:30:02;;;;;;;54.03;31.35;;;6.70;99.90;;;6.41;90.51;101691.28;5117743;28;20388;-75
2022/12/05 04:32:40;;;;;;;52.22;31.10;;;6.70;99.90;;;6.85;90.93;101767.75;5117281;28;20491;-76
2022/12/05 04:35:18;;;;;;;53.53;30.73;;;6.80;99.90;;;6.88;90.47;101770.47;5117060;28;20043;-74
2022/12/05 04:37:52;;;;;;;53.03;32.88;;;6.80;99.90;;;6.88;90.46;101757.31;5117594;28;20040;-76
2022/12/05 04:40:28;;;;;;;51.08;30.80;;;6.80;99.90;;;6.90;90.48;101757.34;5117152;28;20067;-76
2022/12/05 04:42:59;;;;;;;54.10;31.63;;;6.80;99.90;;;6.98;90.66;101758.44;5116914;28;20146;-77
2022/12/05 04:45:27;;;;;;;;;;;6.90;99.90;;;7.02;90.64;101755.03;5099227;28;20085;-77
2022/12/05 04:48:01;;;;;;;49.80;30.23;;;7.00;99.90;;;6.93;90.44;101762.72;5117290;28;19927;-76
2022/12/05 04:50:33;;;;;;;49.53;31.30;;;6.90;99.90;;;7.00;90.50;101764.63;5116761;28;20126;-75
2022/12/05 04:53:03;;;;;;;50.80;30.38;;;6.90;99.90;;;7.11;90.59;101757.88;5116642;28;20036;-75
2022/12/05 04:55:34;;;;;;;48.78;30.40;;;7.00;99.90;;;7.12;90.55;101759.66;5116882;28;20036;-76
2022/12/05 04:58:08;;;;;;;50.05;31.70;;;7.00;99.90;;;7.14;90.32;101758.81;5116908;28;20051;-76
2022/12/05 05:00:46;;;;;;;44.67;28.88;;;7.10;99.90;;;7.17;90.20;101761.56;5116802;28;20052;-76
2022/12/05 05:03:19;;;;;;;47.15;30.40;;;7.10;99.90;;;7.14;90.38;101758.81;5116518;28;20044;-76
2022/12/05 05:05:51;;;;;;;47.72;29.13;;;7.10;99.90;;;7.17;90.02;101760.66;5115314;28;20051;-76
2022/12/05 05:08:24;;;;;;;49.88;30.85;;;7.20;99.90;;;7.26;90.06;101761.75;5116370;28;20115;-77
2022/12/05 05:11:04;;;;;;;45.83;29.38;;;7.20;99.90;;;7.21;89.92;101767.75;5116329;28;20063;-76
2022/12/05 05:13:33;;;;;;;49.83;31.25;;;7.20;99.90;;;7.23;89.97;101763.44;5116517;28;20054;-76
2022/12/05 05:16:01;;;;;;;50.30;30.83;;;7.20;99.90;;;7.20;90.35;101774.75;5116466;28;20055;-75
2022/12/05 05:18:29;;;;;;;49.28;28.90;;;7.20;99.90;;;7.16;90.12;101764.16;5098100;28;20563;-77
2022/12/05 05:20:59;;;;;;;47.58;30.30;;;7.10;99.90;;;7.10;90.58;101764.00;5116130;28;20043;-76
2022/12/05 05:23:27;;;;;;;49.35;28.98;;;7.10;99.90;;;7.14;90.67;101758.81;5116678;28;20050;-77
2022/12/05 05:25:56;;;;;;;44.33;28.92;;;7.10;99.90;;;7.19;90.76;101761.56;5116568;28;20047;-77
2022/12/05 05:28:25;;;;;;;50.83;31.05;;;7.10;99.90;;;7.27;90.65;101766.19;5116511;28;20044;-76
2022/12/05 05:30:53;;;;;;;48.75;30.02;;;7.20;99.90;;;7.31;90.56;101769.75;5116459;28;20473;-76
2022/12/05 05:33:21;;;;;;;47.42;29.42;;;7.30;99.90;;;7.33;90.54;101768.06;5115722;28;20556;-76
2022/12/05 05:35:50;;;;;;;46.35;29.05;;;7.30;99.90;;;7.29;90.64;101774.09;5115801;28;20044;-76
2022/12/05 05:38:19;;;;;;;45.15;28.67;;;7.20;99.90;;;7.34;90.57;101769.81;5115675;28;20043;-76
2022/12/05 05:40:48;;;;;;;47.57;29.60;;;7.20;99.90;;;7.32;90.77;101776.78;5115917;28;20040;-74
2022/12/05 05:43:16;;;;;;;43.25;28.55;;;7.20;99.90;;;7.35;90.76;101783.88;5115904;28;20318;-76
2022/12/05 05:45:44;;;;;;;47.00;30.17;;;7.20;99.90;;;7.40;90.83;101785.75;5115652;28;20043;-76
2022/12/05 05:48:12;;;;;;;47.03;28.35;;;7.30;99.90;;;7.28;90.64;101782.84;5115550;28;20456;-76
2022/12/05 05:50:40;;;;;;;47.53;28.02;;;7.20;99.90;;;7.29;91.04;101775.00;5115523;28;20484;-76
2022/12/05 05:53:11;;;;;;;46.20;28.92;;;7.20;99.90;;;7.28;91.20;101783.72;5115713;28;20075;-76
2022/12/05 05:55:41;;;;;;;45.08;29.15;;;7.20;99.90;;;7.34;91.12;101785.59;5097359;28;20079;-77
2022/12/05 05:58:10;;;;;;;49.42;29.45;;;7.30;99.90;;;7.27;90.99;101784.59;5115500;28;20077;-77
2022/12/05 06:00:38;;;;;;;49.45;30.60;;;7.30;99.90;;;7.39;91.13;101783.09;5115660;28;20044;-77
2022/12/05 06:03:06;;;;;;;43.67;28.38;;;7.30;99.90;;;7.41;90.91;101778.75;5115292;28;20074;-77
2022/12/05 06:05:35;;;;;;;46.65;29.80;;;7.40;99.90;;;7.41;91.01;101789.28;5115276;28;20060;-76
2022/12/05 06:08:04;;;;;;;48.72;30.83;;;7.30;99.90;;;7.45;91.05;101789.41;5097252;28;20135;-77
2022/12/05 06:10:33;;;;;;;46.35;28.90;;;7.30;99.90;;;7.40;90.90;101780.50;5115450;28;20043;-76
2022/12/05 06:13:02;;;;;;;46.58;29.17;;;7.40;99.90;;;7.41;90.89;101787.56;5115291;28;20044;-76
2022/12/05 06:15:31;;;;;;;44.40;30.00;;;7.30;99.90;;;7.44;90.92;101771.81;5114854;28;20043;-76
2022/12/05 06:17:59;;;;;;;48.75;30.35;;;7.40;99.90;;;7.53;90.94;101786.94;5096980;28;20039;-76
2022/12/05 06:20:27;;;;;;;48.85;30.73;;;7.50;99.90;;;7.38;91.10;101758.50;5115290;28;20055;-77
2022/12/05 06:22:55;;;;;;;48.85;30.65;;;7.40;99.90;;;7.57;90.90;101789.66;5096877;28;20392;-76
2022/12/05 06:25:24;;;;;;;49.88;29.85;;;7.50;99.90;;;7.53;90.93;101782.53;5115135;28;20405;-77
2022/12/05 06:27:52;;;;;;;46.55;29.70;;;7.50;99.90;;;7.54;90.69;101784.34;5115018;28;20058;-77
2022/12/05 06:30:22;;;;;;;53.83;31.65;;;7.50;99.90;;;7.60;91.02;101788.84;5114867;28;20043;-78
2022/12/05 06:32:50;;;;;;;53.07;32.10;;;7.50;99.90;;;7.57;91.19;101787.03;5096877;28;20469;-79
2022/12/05 06:35:19;;;;;;;54.08;30.60;;;7.50;99.90;;;7.66;90.55;101781.09;5114547;28;20044;-78
2022/12/05 06:37:47;;;;;;;50.67;30.70;;;7.60;99.90;;;7.67;90.72;101786.38;5114834;28;20044;-78
2022/12/05 06:40:15;;;;;;;50.95;31.33;;;7.60;99.90;;;7.69;90.81;101789.94;5115106;28;20046;-78
2022/12/05 06:42:43;;;;;;;58.80;31.10;;;7.60;99.90;;;7.67;90.65;101796.00;5114519;28;20043;-79
2022/12/05 06:45:12;;;;;;;50.97;31.02;;;7.60;99.90;;;7.52;90.59;101780.78;5114469;28;20481;-78
2022/12/05 06:47:42;;;;;;;50.30;29.63;;;7.60;99.90;;;7.67;91.16;101791.63;5114629;28;20052;-78
2022/12/05 06:50:11;;;;;;;54.83;31.38;;;7.60;99.90;;;7.66;90.98;101794.25;5114947;28;20044;-78
2022/12/05 06:52:39;;;;;;;47.72;29.95;;;7.60;99.90;;;7.64;90.95;101790.69;5114628;28;20050;-79
2022/12/05 06:55:08;;;;;;;49.70;30.35;;;7.60;99.90;;;7.72;90.79;101799.66;5114763;28;20053;-79
2022/12/05 06:57:36;;;;;;;52.58;30.30;;;7.60;99.90;;;7.73;90.85;101810.22;5114464;28;20136;-78
2022/12/05 07:02:54;;;;;;;48.22;29.77;;;7.70;99.90;;;7.74;90.68;101816.38;5114365;28;20053;-78
2022/12/05 07:05:22;;;;;;;47.22;30.00;;;7.60;99.90;;;7.76;90.80;101818.16;5114083;28;20075;-78
2022/12/05 07:07:50;;;;;;;47.85;30.48;;;7.70;99.90;;;7.81;91.13;101821.81;5114217;28;20036;-78
2022/12/05 07:10:19;;;;;;;44.17;28.02;;;7.70;99.90;;;7.87;90.42;101819.31;5113901;28;20055;-77
2022/12/05 07:12:47;;;;;;;49.60;29.55;;;7.80;99.90;;;7.85;90.25;101823.66;5113961;28;20067;-78
2022/12/05 07:15:16;;;;;;;46.88;28.90;;;7.80;99.90;;;7.85;90.74;101815.75;5095815;28;20493;-76
2022/12/05 07:17:44;;;;;;;46.03;28.38;;;7.80;99.90;;;7.82;90.35;101827.97;5113872;28;20040;-76
2022/12/05 07:20:16;;;;;;;44.88;28.63;;;7.70;99.90;;;7.85;90.60;101825.38;5113735;28;20036;-77
2022/12/05 07:22:45;;;;;;;47.95;28.90;;;7.70;99.90;;;7.66;90.45;101786.34;5113770;28;20067;-75
2022/12/05 07:25:13;;;;;;;43.42;27.80;;;7.80;99.90;;;7.85;90.65;101826.28;5113971;28;20485;-77
2022/12/05 07:27:41;;;;;;;47.10;28.42;;;7.80;99.90;;;7.83;90.44;101828.00;5113283;28;20086;-77
2022/12/05 07:30:10;;;;;;;43.95;27.05;;;7.70;99.90;;;7.84;90.45;101826.25;5113653;28;20405;-76
2022/12/05 07:32:39;;;;;;;39.45;26.73;;;7.80;99.90;;;7.80;90.90;101833.19;5113950;28;20074;-76
2022/12/05 07:35:08;;;;;;;39.22;25.77;;;7.70;99.90;;;7.83;90.92;101837.63;5113552;28;20050;-77
2022/12/05 07:37:38;;;;;;;42.50;25.88;;;7.70;99.90;;;7.87;90.76;101827.22;5113676;28;20039;-77
2022/12/05 07:40:07;;;;;;;38.47;25.47;;;7.80;99.90;;;7.85;90.72;101826.28;5113598;28;20050;-75
2022/12/05 07:42:36;;;;;;;39.13;25.17;;;7.80;99.90;;;7.99;90.74;101834.50;5113648;28;20051;-76
2022/12/05 07:45:05;;;;;;;36.67;24.88;;;7.90;99.90;;;7.95;90.69;101837.91;5095540;28;20139;-76
2022/12/05 07:47:34;;;;;;;35.10;24.05;;;7.90;99.90;;;7.96;90.71;101839.69;5113343;28;20043;-68
2022/12/05 07:50:02;;;;;;;35.75;23.27;;;7.90;99.90;;;7.99;90.28;101839.75;5113682;28;20067;-68
2022/12/05 07:52:31;;;;;;;35.63;24.13;;;7.90;99.90;;;7.98;90.55;101833.59;5113943;28;20055;-69
2022/12/05 07:55:00;;;;;;;35.95;24.85;;;7.90;99.90;;;8.04;90.34;101840.72;5113335;28;20496;-69
2022/12/05 07:57:30;;;;;;;40.43;25.93;;;7.90;99.90;;;8.10;90.21;101848.78;5113449;28;20067;-69
2022/12/05 07:59:58;;;;;;;38.03;25.40;;;8.00;99.90;;;8.00;90.20;101829.25;5113919;28;20036;-69
2022/12/05 08:02:27;;;;;;;37.20;25.40;;;8.00;99.90;;;8.13;89.75;101840.91;5113278;28;20112;-67
2022/12/05 08:04:55;;;;;;;36.83;24.67;;;8.10;99.90;;;8.07;89.67;101849.59;5113454;28;20040;-68
2022/12/05 08:07:27;;;;;;;34.38;23.45;;;8.00;99.90;;;8.13;89.94;101852.34;5113300;28;20039;-72
2022/12/05 08:09:55;;;;;;;35.97;23.75;;;8.00;99.90;;;8.19;89.46;101851.59;5095248;28;20142;-72
2022/12/05 08:12:25;;;;;;;33.25;23.02;;;8.10;99.90;;;8.15;89.68;101850.63;5113326;28;20400;-71
2022/12/05 08:14:53;;;;;;;32.13;22.00;;;8.10;99.90;;;8.17;89.39;101858.56;5112923;28;20043;-71
2022/12/05 08:17:22;;;;;;;30.55;22.20;;;8.10;99.90;;;8.20;90.00;101854.28;5095526;28;20061;-77
2022/12/05 08:19:50;;;;;;;33.50;22.10;;;8.10;99.90;;;8.23;89.53;101855.19;5113448;28;20127;-70
2022/12/05 08:22:18;;;;;;;31.85;21.30;;;8.10;99.90;;;8.25;89.75;101851.75;5113089;28;20039;-72
2022/12/05 08:24:49;;;;;;;26.60;19.65;;;8.20;99.90;;;8.23;89.46;101849.94;5095246;28;20122;-74
2022/12/05 08:27:25;;;;;;;27.70;19.90;;;8.20;99.90;;;8.13;89.58;101851.44;5113291;28;20047;-77
2022/12/05 08:29:54;;;;;;;27.58;20.17;;;8.10;99.90;;;7.95;89.81;101856.34;5113188;28;20086;-71
2022/12/05 08:32:23;;;;;;;24.65;18.35;;;8.00;99.90;;;8.10;90.01;101854.94;5113069;28;20052;-80
2022/12/05 08:34:51;;;;;;;27.48;19.50;;;8.00;99.90;;;8.16;89.66;101862.09;5113273;28;20036;-73
2022/12/05 08:37:20;;;;;;;21.63;17.30;;;8.10;99.90;;;8.21;89.64;101866.59;5095361;28;20138;-71
2022/12/05 08:39:49;;;;;;;22.98;18.23;;;8.10;99.90;;;8.27;89.66;101864.97;5097674;28;20544;-71
2022/12/05 08:42:17;;;;;;;23.48;17.63;;;8.20;99.90;;;8.27;89.29;101872.84;5117102;28;20044;-72
2022/12/05 08:44:49;;;;;;;21.77;17.98;;;8.20;99.90;;;8.29;89.46;101871.16;5116782;28;20040;-72
2022/12/05 08:47:18;;;;;;;22.77;17.75;;;8.20;99.90;;;8.23;89.59;101866.59;5116817;28;20396;-71
2022/12/05 08:49:47;;;;;;;25.60;18.40;;;8.20;99.90;;;8.23;89.83;101875.41;5116995;28;20396;-72
2022/12/05 08:52:15;;;;;;;19.27;16.40;;;8.20;99.90;;;8.28;89.54;101877.28;5116712;28;20055;-72
2022/12/05 08:54:43;;;;;;;20.52;17.00;;;8.20;99.90;;;8.31;89.41;101877.34;5116588;28;20044;-74
2022/12/05 08:57:12;;;;;;;18.73;15.90;;;8.20;99.90;;;8.30;89.43;101880.84;5116628;28;20043;-76
2022/12/05 08:59:40;;;;;;;20.67;17.02;;;8.20;99.90;;;8.34;89.59;101887.97;5116567;28;20046;-74
2022/12/05 09:02:10;;;;;;;23.23;17.48;;;8.20;99.90;;;8.08;89.14;101859.28;5116997;28;20077;-73
2022/12/05 09:04:39;;;;;;;20.17;16.58;;;8.30;99.90;;;8.38;89.12;101893.31;5116503;28;20071;-73
2022/12/05 09:07:08;;;;;;;19.27;16.65;;;8.30;99.90;;;8.40;89.14;101893.38;5116421;28;20048;-71
2022/12/05 09:09:36;;;;;;;21.80;16.35;;;8.30;99.90;;;8.42;89.18;101886.38;5098269;28;20509;-73
2022/12/05 09:12:05;;;;;;;22.42;17.45;;;8.40;99.90;;;8.46;88.85;101888.22;5116564;28;20051;-73
2022/12/05 09:14:33;;;;;;;18.02;16.05;;;8.40;99.90;;;8.39;89.23;101899.47;5116184;28;20130;-72
2022/12/05 09:17:03;;;;;;;19.67;15.48;;;8.30;99.90;;;8.45;89.26;101894.34;5116181;28;20174;-73
2022/12/05 09:19:32;;;;;;;18.50;15.77;;;8.40;99.90;;;8.51;88.71;101902.38;5116633;28;20040;-72
2022/12/05 09:22:01;;;;;;;18.17;15.77;;;8.40;99.90;;;8.48;88.58;101899.69;5116236;28;20122;-73
2022/12/05 09:24:29;;;;;;;19.15;15.82;;;8.40;99.90;;;8.49;88.70;101904.09;5116013;28;20847;-72
2022/12/05 09:26:57;;;;;;;19.15;16.13;;;8.40;99.90;;;8.51;88.60;101900.66;5116188;28;20439;-72
2022/12/05 09:29:28;;;;;;;21.48;16.20;;;8.40;99.90;;;8.52;88.69;101909.41;5115969;28;20397;-73
2022/12/05 09:31:56;;;;;;;20.45;15.23;;;8.40;99.90;;;8.50;88.47;101908.50;5115932;28;20064;-73
2022/12/05 09:34:25;;;;;;;17.02;14.73;;;8.40;99.90;;;8.52;88.63;101909.41;5097851;28;20036;-72
2022/12/05 09:36:56;;;;;;;16.95;14.35;;;8.50;99.90;;;8.59;88.58;101911.34;5115514;28;20497;-72
2022/12/05 09:39:45;;;;;;;16.33;13.60;;;8.50;99.90;;;8.58;88.14;101913.09;5115786;28;20044;-72
2022/12/05 09:42:38;;;;;;;17.17;14.50;;;8.50;99.90;;;8.57;88.23;101913.97;5116039;28;20040;-73
2022/12/05 09:45:22;;;;;;;15.32;13.63;;;8.50;99.90;;;8.56;88.40;101921.81;5116198;28;20055;-70
2022/12/05 09:47:58;;;;;;;15.07;13.55;;;8.40;99.90;;;8.61;88.42;101926.34;5116130;28;20043;-70
2022/12/05 09:50:31;;;;;;;14.32;12.68;;;8.50;99.90;;;8.61;88.30;101920.19;5115512;28;20043;-72
2022/12/05 09:53:11;;;;;;;15.60;13.02;;;8.50;99.90;;;7.90;88.15;101815.81;5115894;28;20042;-75
2022/12/05 09:55:46;;;;;;;;;;;8.50;99.90;;;8.46;88.10;101904.91;5116138;28;20054;-71
2022/12/05 09:58:28;;;;;;;15.32;12.35;;;8.60;99.90;;;8.33;88.78;101899.34;5115711;28;19920;-77
2022/12/05 10:01:06;;;;;;;19.42;13.55;;;8.40;99.90;;;8.57;89.00;101934.16;5115353;28;20058;-77
2022/12/05 10:03:42;;;;;;;16.33;12.93;;;8.50;99.90;;;8.58;88.80;101920.09;5115311;28;20047;-73
2022/12/05 10:06:17;;;;;;;15.38;12.60;;;8.50;99.90;;;8.59;88.40;101919.25;5115197;28;20059;-72
2022/12/05 10:09:12;;;;;;;16.15;13.38;;;8.50;99.90;;;8.62;88.20;101922.84;5097147;28;20047;-73
2022/12/05 10:11:50;;;;;;;15.50;12.60;;;8.50;99.90;;;8.59;88.61;101917.50;5115145;28;20096;-74
2022/12/05 10:14:31;;;;;;;13.80;12.40;;;8.50;99.90;;;8.64;88.43;101923.75;5115107;28;20070;-73
2022/12/05 10:17:09;;;;;;;14.02;12.52;;;8.50;99.90;;;8.68;88.06;101922.97;5115281;28;20130;-74
2022/12/05 10:19:43;;;;;;;14.27;12.10;;;8.60;99.90;;;8.63;88.06;101923.75;5114974;28;20047;-72
2022/12/05 10:22:17;;;;;;;16.00;12.57;;;8.60;99.90;;;8.49;88.26;101906.72;5097007;28;20500;-79
2022/12/05 10:24:54;;;;;;;13.10;11.73;;;8.50;99.90;;;8.61;88.29;101917.53;5115150;28;20443;-76
2022/12/05 10:27:33;;;;;;;13.27;11.88;;;8.50;99.90;;;8.60;88.51;101915.75;5114960;28;20535;-79
2022/12/05 10:30:15;;;;;;;13.45;11.75;;;8.60;99.90;;;8.72;88.09;101929.19;5114861;28;20047;-79
2022/12/05 10:32:53;;;;;;;14.57;12.02;;;8.60;99.90;;;8.61;88.54;101925.44;5114733;28;20130;-71
2022/12/05 10:35:24;;;;;;;15.85;13.20;;;8.60;99.90;;;8.58;88.46;101925.38;5096741;28;20396;-71
2022/12/05 10:37:55;;;;;;;16.05;12.38;;;8.50;99.90;;;8.58;88.73;101925.38;5096628;28;20054;-72
2022/12/05 10:40:26;;;;;;;13.93;12.40;;;8.50;99.90;;;8.55;89.29;101926.22;5115143;28;20465;-71
2022/12/05 10:42:55;;;;;;;14.93;12.65;;;8.50;99.90;;;8.59;88.96;101927.16;5114851;28;20067;-74